createdAt,value
2018-02-06T00:00:39.851Z,77.31
2018-02-06T00:01:39.872Z,77.40
2018-02-06T00:02:39.902Z,77.50
2018-02-06T00:03:39.902Z,77.50
2018-02-06T00:04:39.924Z,77.69
2018-02-06T00:05:39.940Z,78.06
2018-02-06T00:06:39.956Z,78.53
2018-02-06T00:07:39.974Z,80.43
2018-02-06T00:08:39.996Z,82.03
2018-02-06T00:09:40.009Z,83.03
2018-02-06T00:10:40.028Z,83.40
2018-02-06T00:11:40.052Z,83.97
2018-02-06T00:12:40.067Z,83.97
2018-02-06T00:13:40.079Z,83.78
2018-02-06T00:14:40.097Z,84.45
2018-02-06T00:15:40.130Z,83.97
2018-02-06T00:16:40.136Z,83.88
2018-02-06T00:17:40.154Z,84.07
2018-02-06T00:18:40.174Z,83.78
2018-02-06T00:19:40.191Z,83.88
2018-02-06T00:20:40.204Z,83.69
2018-02-06T00:21:40.224Z,83.59
2018-02-06T00:22:40.239Z,84.07
2018-02-06T00:23:40.257Z,83.78
2018-02-06T00:24:40.285Z,83.69
2018-02-06T00:25:40.297Z,83.78
2018-02-06T00:26:40.308Z,83.69
2018-02-06T00:27:40.333Z,83.97
2018-02-06T00:28:40.345Z,84.26
2018-02-06T00:29:40.364Z,84.82
2018-02-06T00:30:40.376Z,84.73
2018-02-06T00:31:40.397Z,84.82
2018-02-06T00:32:40.418Z,84.64
2018-02-06T00:33:40.430Z,84.16
2018-02-06T00:34:40.443Z,84.16
2018-02-06T00:35:40.464Z,83.59
2018-02-06T00:36:40.486Z,83.12
2018-02-06T00:37:40.520Z,82.46
2018-02-06T00:38:40.520Z,82.41
2018-02-06T00:39:41.185Z,82.50
2018-02-06T00:40:40.548Z,82.12
2018-02-06T00:41:40.653Z,82.12
2018-02-06T00:42:40.590Z,81.84
2018-02-06T00:43:40.607Z,81.18
2018-02-06T00:44:40.621Z,81.09
2018-02-06T00:45:40.645Z,81.18
2018-02-06T00:46:40.655Z,80.71
2018-02-06T00:47:40.685Z,80.52
2018-02-06T00:48:40.695Z,80.52
2018-02-06T00:49:40.706Z,80.90
2018-02-06T00:50:40.724Z,80.99
2018-02-06T00:51:40.750Z,81.09
2018-02-06T00:52:40.770Z,81.18
2018-02-06T00:53:40.776Z,80.71
2018-02-06T00:54:40.804Z,80.80
2018-02-06T00:55:40.822Z,80.99
2018-02-06T00:56:40.844Z,81.09
2018-02-06T00:57:40.851Z,80.71
2018-02-06T00:58:40.868Z,80.52
2018-02-06T00:59:40.880Z,80.24
2018-02-06T01:00:40.899Z,81.09
2018-02-06T01:01:40.916Z,81.93
2018-02-06T01:02:40.935Z,81.37
2018-02-06T01:03:40.954Z,81.65
2018-02-06T01:04:40.966Z,81.09
2018-02-06T01:05:40.988Z,80.43
2018-02-06T01:06:41.004Z,80.05
2018-02-06T01:07:41.159Z,80.71
2018-02-06T01:08:41.044Z,80.43
2018-02-06T01:09:41.079Z,80.24
2018-02-06T01:10:41.074Z,80.52
2018-02-06T01:11:41.098Z,80.62
2018-02-06T01:12:41.111Z,80.52
2018-02-06T01:13:41.129Z,80.52
2018-02-06T01:14:41.143Z,80.43
2018-02-06T01:15:41.165Z,80.62
2018-02-06T01:16:41.181Z,80.52
2018-02-06T01:17:41.197Z,80.71
2018-02-06T01:18:41.216Z,80.80
2018-02-06T01:19:41.234Z,80.62
2018-02-06T01:20:41.309Z,80.52
2018-02-06T01:21:41.273Z,80.62
2018-02-06T01:22:41.293Z,80.90
2018-02-06T01:23:41.308Z,81.09
2018-02-06T01:24:41.318Z,81.18
2018-02-06T01:25:41.334Z,80.24
2018-02-06T01:26:41.389Z,80.14
2018-02-06T01:27:41.383Z,80.33
2018-02-06T01:28:41.389Z,80.62
2018-02-06T01:29:41.402Z,79.67
2018-02-06T01:30:41.422Z,80.52
2018-02-06T01:31:41.443Z,80.43
2018-02-06T01:32:41.462Z,80.62
2018-02-06T01:33:41.478Z,80.62
2018-02-06T01:34:41.493Z,80.52
2018-02-06T01:35:41.509Z,80.62
2018-02-06T01:36:41.527Z,80.95
2018-02-06T01:37:41.553Z,81.71
2018-02-06T01:38:41.561Z,82.18
2018-02-06T01:39:41.582Z,83.59
2018-02-06T01:40:41.595Z,83.88
2018-02-06T01:41:41.625Z,84.16
2018-02-06T01:42:41.634Z,84.16
2018-02-06T01:43:41.650Z,84.07
2018-02-06T01:44:41.675Z,83.88
2018-02-06T01:45:41.685Z,83.78
2018-02-06T01:46:41.703Z,83.59
2018-02-06T01:47:41.736Z,82.84
2018-02-06T01:48:41.737Z,83.31
2018-02-06T01:49:41.753Z,82.37
2018-02-06T01:50:41.772Z,81.99
2018-02-06T01:51:41.791Z,81.99
2018-02-06T01:52:41.808Z,80.85
2018-02-06T01:53:41.826Z,81.23
2018-02-06T01:54:41.837Z,80.95
2018-02-06T01:55:41.858Z,80.38
2018-02-06T01:56:41.872Z,80.85
2018-02-06T01:57:41.895Z,80.19
2018-02-06T01:58:41.914Z,80.48
2018-02-06T01:59:41.926Z,80.00
2018-02-06T02:00:41.940Z,80.48
2018-02-06T02:01:41.965Z,80.38
2018-02-06T02:02:41.983Z,80.29
2018-02-06T02:03:41.999Z,81.14
2018-02-06T02:04:42.023Z,80.95
2018-02-06T02:05:42.027Z,80.10
2018-02-06T02:06:42.047Z,80.10
2018-02-06T02:07:42.071Z,80.19
2018-02-06T02:08:42.083Z,80.19
2018-02-06T02:09:42.098Z,79.91
2018-02-06T02:10:42.114Z,80.00
2018-02-06T02:11:42.138Z,79.91
2018-02-06T02:12:42.151Z,79.72
2018-02-06T02:13:42.169Z,79.44
2018-02-06T02:14:42.183Z,79.82
2018-02-06T02:15:42.213Z,79.63
2018-02-06T02:16:42.227Z,80.19
2018-02-06T02:17:42.242Z,79.91
2018-02-06T02:18:42.253Z,79.25
2018-02-06T02:19:42.283Z,79.06
2018-02-06T02:20:42.287Z,78.97
2018-02-06T02:21:42.311Z,79.25
2018-02-06T02:22:42.329Z,78.97
2018-02-06T02:23:42.342Z,79.72
2018-02-06T02:24:42.354Z,79.82
2018-02-06T02:25:42.376Z,79.82
2018-02-06T02:26:42.392Z,79.63
2018-02-06T02:27:42.418Z,79.82
2018-02-06T02:28:42.428Z,79.53
2018-02-06T02:29:42.444Z,79.44
2018-02-06T02:30:42.462Z,79.44
2018-02-06T02:31:42.476Z,79.63
2018-02-06T02:32:42.497Z,78.97
2018-02-06T02:33:42.510Z,79.16
2018-02-06T02:34:42.527Z,79.06
2018-02-06T02:35:42.551Z,79.16
2018-02-06T02:36:42.573Z,79.53
2018-02-06T02:37:42.588Z,79.25
2018-02-06T02:38:42.597Z,79.25
2018-02-06T02:39:42.618Z,79.06
2018-02-06T02:40:42.635Z,79.06
2018-02-06T02:41:42.655Z,79.25
2018-02-06T04:38:44.644Z,86.15
2018-02-06T04:39:44.664Z,85.58
2018-02-06T04:40:44.682Z,85.58
2018-02-06T04:41:44.701Z,85.49
2018-02-06T04:42:44.725Z,85.20
2018-02-06T04:43:44.846Z,84.92
2018-02-06T04:44:44.746Z,84.82
2018-02-06T04:45:44.776Z,85.11
2018-02-06T04:46:44.782Z,84.64
2018-02-06T04:47:44.810Z,83.97
2018-02-06T04:48:44.814Z,83.88
2018-02-06T04:49:44.835Z,84.26
2018-02-06T04:50:44.851Z,84.07
2018-02-06T04:51:44.872Z,83.88
2018-02-06T04:52:44.884Z,83.97
2018-02-06T04:53:44.899Z,83.50
2018-02-06T04:54:44.919Z,83.69
2018-02-06T04:55:44.943Z,83.88
2018-02-06T04:56:45.654Z,83.31
2018-02-06T04:57:44.968Z,83.50
2018-02-06T04:58:45.049Z,83.40
2018-02-06T04:59:45.011Z,82.84
2018-02-06T05:00:45.025Z,83.12
2018-02-06T05:01:45.040Z,82.93
2018-02-06T05:02:45.055Z,83.03
2018-02-06T05:03:45.071Z,83.22
2018-02-06T05:04:45.087Z,83.22
2018-02-06T05:05:45.122Z,83.59
2018-02-06T05:06:45.128Z,83.22
2018-02-06T05:07:45.138Z,83.40
2018-02-06T05:08:45.154Z,83.59
2018-02-06T05:09:45.170Z,84.16
2018-02-06T05:10:45.190Z,83.69
2018-02-06T05:11:45.283Z,84.07
2018-02-06T05:12:45.225Z,83.50
2018-02-06T05:13:45.241Z,83.40
2018-02-06T05:14:45.257Z,83.22
2018-02-06T05:15:45.280Z,82.93
2018-02-06T05:16:45.302Z,83.12
2018-02-06T05:17:45.310Z,83.22
2018-02-06T05:18:45.326Z,83.31
2018-02-06T05:19:45.343Z,83.31
2018-02-06T05:20:45.364Z,83.31
2018-02-06T05:21:45.374Z,83.12
2018-02-06T05:22:45.408Z,83.40
2018-02-06T05:23:45.405Z,84.07
2018-02-06T05:24:45.503Z,83.78
2018-02-06T05:25:45.442Z,83.88
2018-02-06T05:26:45.461Z,84.16
2018-02-06T05:27:45.478Z,83.31
2018-02-06T05:28:45.495Z,83.97
2018-02-06T05:29:45.511Z,83.78
2018-02-06T05:30:45.528Z,83.78
2018-02-06T05:31:45.554Z,83.50
2018-02-06T05:32:45.564Z,84.16
2018-02-06T05:33:45.584Z,84.16
2018-02-06T05:34:45.594Z,83.78
2018-02-06T05:35:45.610Z,83.97
2018-02-06T05:36:45.627Z,83.97
2018-02-06T05:37:45.656Z,83.40
2018-02-06T05:38:45.670Z,83.40
2018-02-06T05:39:45.678Z,83.40
2018-02-06T05:40:45.698Z,83.50
2018-02-06T05:41:45.719Z,83.50
2018-02-06T05:42:45.731Z,83.31
2018-02-06T05:43:45.750Z,83.31
2018-02-06T05:44:45.774Z,83.03
2018-02-06T05:45:45.781Z,83.03
2018-02-06T05:46:45.798Z,83.40
2018-02-06T05:47:45.814Z,83.31
2018-02-06T05:48:45.841Z,83.69
2018-02-06T05:49:45.852Z,84.16
2018-02-06T05:50:45.865Z,85.06
2018-02-06T05:51:45.884Z,86.29
2018-02-06T05:52:45.897Z,86.86
2018-02-06T05:53:45.922Z,87.14
2018-02-06T05:54:45.946Z,87.99
2018-02-06T05:55:45.952Z,88.37
2018-02-06T05:56:45.972Z,88.18
2018-02-06T05:57:45.981Z,88.18
2018-02-06T05:58:46.002Z,87.90
2018-02-06T05:59:46.018Z,87.33
2018-02-06T06:00:46.035Z,87.05
2018-02-06T06:01:46.050Z,86.29
2018-02-06T06:02:46.073Z,86.67
2018-02-06T06:03:46.084Z,86.76
2018-02-06T06:04:46.102Z,86.29
2018-02-06T06:05:46.115Z,86.57
2018-02-06T06:06:46.133Z,86.38
2018-02-06T06:07:46.150Z,86.19
2018-02-06T06:08:46.206Z,85.25
2018-02-06T06:09:46.181Z,85.16
2018-02-06T06:10:46.202Z,84.78
2018-02-06T06:11:46.220Z,84.50
2018-02-06T06:12:46.233Z,84.59
2018-02-06T06:13:46.251Z,83.74
2018-02-06T06:14:46.266Z,83.93
2018-02-06T06:15:46.289Z,83.27
2018-02-06T06:16:46.299Z,82.99
2018-02-06T06:17:46.316Z,83.27
2018-02-06T06:18:46.332Z,82.61
2018-02-06T06:19:46.347Z,82.23
2018-02-06T06:20:46.371Z,82.14
2018-02-06T06:21:46.381Z,82.04
2018-02-06T06:22:46.398Z,81.67
2018-02-06T06:23:46.417Z,81.76
2018-02-06T06:24:46.433Z,81.67
2018-02-06T06:25:46.448Z,81.67
2018-02-06T06:26:46.471Z,81.57
2018-02-06T06:27:46.496Z,81.95
2018-02-06T06:28:46.499Z,81.67
2018-02-06T06:29:46.523Z,81.38
2018-02-06T06:30:46.529Z,81.52
2018-02-06T06:31:46.549Z,81.57
2018-02-06T06:32:46.568Z,81.85
2018-02-06T06:33:46.588Z,81.29
2018-02-06T06:34:46.602Z,81.76
2018-02-06T06:35:46.617Z,81.61
2018-02-06T06:36:46.632Z,81.29
2018-02-06T06:37:46.650Z,81.95
2018-02-06T06:38:46.667Z,82.23
2018-02-06T06:39:46.691Z,82.04
2018-02-06T06:40:46.696Z,82.32
2018-02-06T06:41:46.724Z,82.51
2018-02-06T06:42:46.736Z,82.42
2018-02-06T06:43:46.760Z,82.32
2018-02-06T06:44:46.770Z,82.04
2018-02-06T06:45:46.786Z,82.04
2018-02-06T06:46:46.945Z,81.85
2018-02-06T06:47:46.823Z,82.61
2018-02-06T06:48:46.842Z,82.61
2018-02-06T06:49:46.855Z,81.95
2018-02-06T06:50:46.866Z,82.32
2018-02-06T06:51:46.880Z,82.42
2018-02-06T06:52:46.905Z,82.23
2018-02-06T06:53:46.915Z,82.14
2018-02-06T06:54:46.939Z,82.04
2018-02-06T06:55:46.949Z,81.95
2018-02-06T06:56:46.969Z,81.99
2018-02-06T06:57:46.982Z,82.23
2018-02-06T06:58:47.008Z,81.20
2018-02-06T06:59:47.038Z,81.95
2018-02-06T07:00:47.032Z,81.76
2018-02-06T07:01:47.133Z,81.38
2018-02-06T07:02:47.069Z,81.52
2018-02-06T07:03:47.101Z,81.76
2018-02-06T07:04:47.109Z,81.57
2018-02-06T07:05:47.122Z,81.52
2018-02-06T07:06:47.135Z,81.14
2018-02-06T07:07:47.152Z,80.95
2018-02-06T07:08:47.171Z,80.72
2018-02-06T07:09:47.230Z,80.63
2018-02-06T07:10:47.224Z,80.44
2018-02-06T07:11:47.215Z,80.57
2018-02-06T07:12:47.234Z,80.48
2018-02-06T07:13:47.256Z,80.76
2018-02-06T07:14:47.279Z,80.76
2018-02-06T07:15:47.295Z,80.76
2018-02-06T07:16:47.382Z,80.72
2018-02-06T07:17:47.322Z,80.76
2018-02-06T07:18:47.333Z,80.85
2018-02-06T07:19:47.350Z,80.44
2018-02-06T07:20:47.367Z,80.38
2018-02-06T07:21:47.381Z,80.57
2018-02-06T07:22:47.409Z,81.14
2018-02-06T07:23:47.417Z,81.23
2018-02-06T07:24:47.447Z,80.85
2018-02-06T07:25:47.458Z,81.04
2018-02-06T07:26:47.469Z,81.14
2018-02-06T07:27:48.187Z,80.76
2018-02-06T07:28:47.503Z,80.76
2018-02-06T07:29:47.521Z,81.10
2018-02-06T07:30:47.532Z,80.91
2018-02-06T07:31:47.551Z,81.10
2018-02-06T07:32:47.569Z,81.20
2018-02-06T07:33:47.585Z,80.72
2018-02-06T07:34:47.600Z,81.23
2018-02-06T07:35:47.631Z,80.38
2018-02-06T07:36:47.635Z,80.76
2018-02-06T07:37:47.653Z,80.57
2018-02-06T07:38:47.667Z,80.66
2018-02-06T07:39:47.691Z,80.63
2018-02-06T07:40:47.699Z,80.48
2018-02-06T07:41:47.735Z,80.95
2018-02-06T07:42:47.736Z,80.38
2018-02-06T07:43:47.755Z,80.29
2018-02-06T07:44:47.768Z,81.04
2018-02-06T07:45:47.784Z,81.04
2018-02-06T07:46:47.807Z,80.48
2018-02-06T07:47:47.818Z,80.95
2018-02-06T07:48:47.829Z,80.38
2018-02-06T07:49:47.861Z,80.38
2018-02-06T07:50:47.878Z,80.19
2018-02-06T07:51:47.882Z,80.29
2018-02-06T07:52:47.899Z,80.57
2018-02-06T07:53:47.917Z,80.57
2018-02-06T07:54:47.934Z,80.29
2018-02-06T07:55:47.962Z,80.66
2018-02-06T07:56:47.967Z,80.19
2018-02-06T07:57:47.995Z,80.19
2018-02-06T07:58:48.000Z,80.66
2018-02-06T07:59:48.018Z,80.48
2018-02-06T08:00:48.043Z,80.48
2018-02-06T08:01:48.052Z,80.29
2018-02-06T08:02:48.066Z,80.19
2018-02-06T08:03:48.087Z,80.76
2018-02-06T08:04:48.110Z,80.00
2018-02-06T08:05:48.115Z,80.66
2018-02-06T08:06:48.156Z,80.57
2018-02-06T08:07:48.159Z,81.04
2018-02-06T08:08:48.171Z,81.14
2018-02-06T08:09:48.184Z,81.04
2018-02-06T08:10:48.202Z,80.10
2018-02-06T08:11:48.229Z,79.53
2018-02-06T08:12:48.232Z,79.78
2018-02-06T08:13:48.262Z,79.59
2018-02-06T08:14:48.266Z,80.44
2018-02-06T08:15:48.287Z,79.97
2018-02-06T08:16:48.299Z,80.00
2018-02-06T08:17:48.318Z,79.72
2018-02-06T08:18:48.365Z,80.00
2018-02-06T08:19:48.376Z,80.00
2018-02-06T08:20:48.369Z,80.19
2018-02-06T08:21:48.383Z,80.10
2018-02-06T08:22:48.404Z,80.00
2018-02-06T08:23:48.423Z,79.44
2018-02-06T08:24:48.451Z,79.72
2018-02-06T08:25:48.450Z,79.53
2018-02-06T08:26:48.466Z,79.53
2018-02-06T08:27:48.483Z,79.63
2018-02-06T08:28:48.510Z,80.48
2018-02-06T08:29:48.522Z,80.00
2018-02-06T08:30:48.537Z,79.44
2018-02-06T08:31:48.549Z,80.10
2018-02-06T08:32:48.573Z,79.25
2018-02-06T08:33:48.589Z,78.78
2018-02-06T08:34:48.626Z,78.68
2018-02-06T08:35:48.620Z,79.35
2018-02-06T08:36:48.644Z,78.97
2018-02-06T08:37:48.653Z,79.06
2018-02-06T08:38:48.676Z,79.06
2018-02-06T08:39:48.695Z,79.44
2018-02-06T08:40:48.708Z,79.06
2018-02-06T08:41:48.718Z,78.87
2018-02-06T08:42:48.738Z,78.68
2018-02-06T08:43:48.756Z,78.50
2018-02-06T08:44:48.786Z,78.12
2018-02-06T08:45:48.801Z,77.93
2018-02-06T08:46:48.805Z,78.21
2018-02-06T08:47:48.820Z,78.02
2018-02-06T08:48:48.857Z,78.02
2018-02-06T08:49:48.949Z,78.02
2018-02-06T08:50:48.877Z,77.64
2018-02-06T08:51:48.889Z,77.93
2018-02-06T08:52:48.913Z,78.12
2018-02-06T08:53:48.940Z,78.50
2018-02-06T08:54:48.941Z,78.21
2018-02-06T08:55:48.968Z,78.21
2018-02-06T08:56:48.976Z,78.50
2018-02-06T08:57:48.991Z,78.78
2018-02-06T08:58:49.063Z,78.78
2018-02-06T08:59:49.055Z,78.50
2018-02-06T09:00:49.063Z,78.68
2018-02-06T09:01:49.061Z,78.40
2018-02-06T09:02:49.639Z,77.64
2018-02-06T09:03:49.094Z,77.93
2018-02-06T09:04:49.112Z,77.93
2018-02-06T09:05:49.126Z,77.74
2018-02-06T09:06:49.144Z,77.74
2018-02-06T09:07:49.171Z,77.93
2018-02-06T09:08:49.177Z,77.55
2018-02-06T09:09:49.203Z,76.98
2018-02-06T09:10:49.226Z,77.36
2018-02-06T09:11:49.232Z,77.17
2018-02-06T09:12:49.253Z,77.59
2018-02-06T09:13:49.274Z,77.36
2018-02-06T09:14:49.283Z,77.02
2018-02-06T09:15:49.299Z,76.55
2018-02-06T09:16:49.319Z,75.70
2018-02-06T09:17:49.359Z,75.32
2018-02-06T09:18:49.359Z,75.79
2018-02-06T09:19:49.395Z,75.79
2018-02-06T09:20:49.384Z,75.60
2018-02-06T09:21:49.398Z,75.13
2018-02-06T09:22:49.426Z,75.09
2018-02-06T09:23:49.439Z,75.42
2018-02-06T09:24:49.458Z,75.04
2018-02-06T09:25:49.472Z,74.95
2018-02-06T09:26:49.496Z,74.66
2018-02-06T09:27:49.506Z,73.90
2018-02-06T09:28:49.524Z,74.81
2018-02-06T09:29:49.551Z,75.04
2018-02-06T09:30:49.614Z,75.23
2018-02-06T09:31:49.576Z,75.13
2018-02-06T09:32:49.623Z,75.60
2018-02-06T09:33:49.607Z,75.42
2018-02-06T09:34:49.640Z,74.76
2018-02-06T09:35:49.649Z,75.04
2018-02-06T09:36:49.666Z,75.13
2018-02-06T09:37:49.681Z,75.32
2018-02-06T09:38:49.708Z,75.13
2018-02-06T09:39:49.711Z,75.04
2018-02-06T09:40:49.727Z,74.66
2018-02-06T09:41:49.755Z,74.66
2018-02-06T09:42:49.771Z,74.85
2018-02-06T09:43:49.787Z,75.13
2018-02-06T09:44:49.806Z,74.66
2018-02-06T09:45:49.819Z,74.00
2018-02-06T09:46:49.841Z,74.00
2018-02-06T09:47:49.852Z,73.90
2018-02-06T09:48:49.879Z,74.00
2018-02-06T09:49:49.886Z,74.00
2018-02-06T09:50:49.906Z,74.09
2018-02-06T09:51:49.920Z,74.19
2018-02-06T09:52:49.943Z,74.19
2018-02-06T09:53:49.964Z,74.09
2018-02-06T09:54:49.977Z,74.00
2018-02-06T09:55:49.989Z,73.71
2018-02-06T09:56:50.018Z,73.62
2018-02-06T09:57:50.028Z,73.90
2018-02-06T09:58:50.045Z,73.14
2018-02-06T09:59:50.064Z,72.86
2018-02-06T10:00:50.077Z,73.05
2018-02-06T10:01:50.096Z,73.33
2018-02-06T10:02:50.112Z,73.14
2018-02-06T10:03:50.128Z,73.14
2018-02-06T10:04:50.185Z,72.39
2018-02-06T10:05:50.160Z,72.67
2018-02-06T10:06:50.178Z,72.02
2018-02-06T10:07:50.213Z,72.77
2018-02-06T10:08:50.229Z,72.02
2018-02-06T10:09:50.241Z,72.11
2018-02-06T10:10:50.249Z,72.11
2018-02-06T10:11:50.276Z,72.11
2018-02-06T10:12:50.286Z,72.11
2018-02-06T10:13:50.301Z,72.02
2018-02-06T10:14:50.324Z,72.20
2018-02-06T10:15:50.341Z,71.26
2018-02-06T10:16:50.355Z,70.88
2018-02-06T10:17:50.376Z,70.59
2018-02-06T10:18:50.391Z,70.69
2018-02-06T10:19:50.414Z,70.31
2018-02-06T10:20:50.422Z,70.31
2018-02-06T10:21:50.439Z,70.59
2018-02-06T10:22:50.463Z,69.93
2018-02-06T10:23:50.472Z,69.37
2018-02-06T10:24:50.499Z,69.18
2018-02-06T10:25:50.510Z,68.61
2018-02-06T10:26:50.541Z,69.18
2018-02-06T10:27:50.545Z,68.65
2018-02-06T10:28:50.569Z,68.65
2018-02-06T10:29:50.582Z,68.65
2018-02-06T10:30:50.596Z,68.74
2018-02-06T10:31:50.617Z,67.55
2018-02-06T10:32:50.633Z,66.41
2018-02-06T10:33:50.652Z,66.22
2018-02-06T10:34:50.676Z,66.03
2018-02-06T10:35:50.693Z,65.56
2018-02-06T10:36:50.709Z,65.66
2018-02-06T10:37:50.831Z,63.98
2018-02-06T10:38:50.739Z,63.51
2018-02-06T10:39:50.815Z,61.83
2018-02-06T10:40:50.786Z,60.64
2018-02-06T10:41:50.799Z,59.63
2018-02-06T10:42:50.817Z,56.62
2018-02-06T10:43:50.837Z,54.82
2018-02-06T10:44:50.880Z,54.34
2018-02-06T10:45:50.891Z,54.06
2018-02-06T10:46:50.901Z,53.14
2018-02-06T10:47:50.936Z,52.28
2018-02-06T10:48:50.963Z,51.45
2018-02-06T10:49:50.974Z,49.93
2018-02-06T10:50:51.004Z,49.46
2018-02-06T10:51:51.027Z,49.37
2018-02-06T10:52:51.059Z,49.37
2018-02-06T10:53:51.077Z,49.18
2018-02-06T10:54:51.104Z,49.37
2018-02-06T10:55:51.133Z,49.65
2018-02-06T10:56:51.149Z,49.18
2018-02-06T10:57:51.176Z,48.25
2018-02-06T10:58:51.198Z,47.39
2018-02-06T10:59:51.233Z,46.75
2018-02-06T11:00:51.258Z,45.66
2018-02-06T11:01:51.288Z,45.73
2018-02-06T11:02:51.307Z,47.16
2018-02-06T11:03:51.338Z,48.01
2018-02-06T11:04:51.381Z,47.94
2018-02-06T11:05:51.393Z,47.02
2018-02-06T11:06:51.419Z,45.80
2018-02-06T11:07:51.465Z,45.04
2018-02-06T11:08:51.473Z,44.57
2018-02-06T11:09:51.502Z,44.47
2018-02-06T11:10:51.554Z,44.76
2018-02-06T11:11:51.559Z,43.71
2018-02-06T11:12:51.587Z,44.09
2018-02-06T11:13:51.611Z,43.50
2018-02-06T11:14:51.647Z,44.60
2018-02-06T11:15:51.672Z,46.02
2018-02-06T11:16:51.698Z,47.06
2018-02-06T11:17:51.724Z,47.44
2018-02-06T11:18:51.751Z,47.28
2018-02-06T11:19:51.815Z,47.16
2018-02-06T11:20:51.808Z,47.89
2018-02-06T11:21:51.832Z,48.18
2018-02-06T11:22:51.867Z,49.13
2018-02-06T11:23:51.886Z,48.08
2018-02-06T11:24:51.915Z,48.84
2018-02-06T11:25:51.942Z,47.89
2018-02-06T11:26:51.966Z,48.11
2018-02-06T11:27:51.997Z,48.22
2018-02-06T11:28:52.024Z,46.83
2018-02-06T11:29:52.054Z,45.33
2018-02-06T11:30:52.087Z,43.16
2018-02-06T11:31:52.106Z,42.19
2018-02-06T11:32:52.133Z,41.49
2018-02-06T11:33:52.162Z,42.70
2018-02-06T11:34:52.179Z,42.98
2018-02-06T11:35:52.209Z,44.79
2018-02-06T11:36:52.238Z,44.60
2018-02-06T11:37:52.270Z,44.79
2018-02-06T11:38:52.289Z,44.84
2018-02-06T11:39:52.318Z,46.54
2018-02-06T11:40:52.344Z,47.96
2018-02-06T11:41:52.371Z,48.32
2018-02-06T11:42:52.392Z,49.93
2018-02-06T11:43:52.421Z,50.76
2018-02-06T11:44:52.445Z,50.95
2018-02-06T11:45:52.476Z,51.04
2018-02-06T11:46:52.495Z,51.30
2018-02-06T11:47:52.524Z,51.42
2018-02-06T11:48:52.569Z,51.70
2018-02-06T11:49:52.568Z,51.99
2018-02-06T11:50:52.598Z,51.37
2018-02-06T11:51:52.675Z,49.13
2018-02-06T11:52:52.640Z,47.25
2018-02-06T11:53:52.668Z,45.38
2018-02-06T11:54:52.793Z,44.07
2018-02-06T11:55:52.723Z,42.29
2018-02-06T11:56:52.749Z,40.39
2018-02-06T11:57:52.769Z,39.62
2018-02-06T11:58:52.791Z,39.25
2018-02-06T11:59:52.816Z,39.84
2018-02-06T12:00:52.847Z,39.07
2018-02-06T12:01:52.862Z,38.41
2018-02-06T12:02:52.893Z,37.67
2018-02-06T12:03:52.917Z,37.59
2018-02-06T12:04:52.962Z,35.88
2018-02-06T12:05:52.977Z,35.19
2018-02-06T12:06:52.994Z,36.35
2018-02-06T12:07:53.021Z,35.67
2018-02-06T12:08:53.050Z,36.70
2018-02-06T12:09:53.075Z,37.65
2018-02-06T12:10:53.107Z,37.74
2018-02-06T12:11:53.131Z,37.59
2018-02-06T12:12:53.159Z,36.76
2018-02-06T12:13:53.190Z,33.53
2018-02-06T12:14:53.206Z,32.31
2018-02-06T12:15:53.237Z,31.74
2018-02-06T12:16:53.386Z,31.53
2018-02-06T12:17:53.298Z,31.42
2018-02-06T12:18:53.328Z,32.18
2018-02-06T12:19:53.346Z,33.20
2018-02-06T12:20:53.384Z,34.07
2018-02-06T12:21:53.405Z,34.61
2018-02-06T12:22:53.431Z,35.10
2018-02-06T12:23:53.464Z,34.83
2018-02-06T12:24:53.486Z,33.14
2018-02-06T12:25:53.520Z,33.65
2018-02-06T12:26:53.539Z,34.61
2018-02-06T12:27:53.611Z,34.92
2018-02-06T12:28:53.600Z,33.91
2018-02-06T12:29:53.628Z,32.58
2018-02-06T12:30:53.658Z,31.42
2018-02-06T12:31:53.682Z,31.45
2018-02-06T12:32:53.717Z,30.12
2018-02-06T12:33:53.741Z,30.10
2018-02-06T12:34:53.767Z,30.52
2018-02-06T12:35:53.797Z,29.48
2018-02-06T12:36:53.823Z,28.64
2018-02-06T12:37:53.857Z,27.37
2018-02-06T12:38:53.898Z,28.86
2018-02-06T12:39:53.907Z,30.37
2018-02-06T12:40:53.934Z,31.96
2018-02-06T12:41:53.964Z,33.28
2018-02-06T12:42:53.992Z,34.51
2018-02-06T12:43:54.024Z,35.63
2018-02-06T12:44:54.046Z,36.36
2018-02-06T12:45:54.071Z,37.38
2018-02-06T12:46:54.096Z,39.18
2018-02-06T12:47:54.122Z,40.50
2018-02-06T12:48:54.160Z,41.44
2018-02-06T12:49:54.180Z,40.97
2018-02-06T12:50:54.207Z,41.92
2018-02-06T12:51:54.218Z,42.86
2018-02-06T12:52:54.253Z,42.85
2018-02-06T12:53:54.271Z,43.88
2018-02-06T12:54:54.296Z,44.46
2018-02-06T12:55:54.314Z,44.74
2018-02-06T12:56:54.350Z,44.93
2018-02-06T12:57:54.364Z,44.91
2018-02-06T12:58:54.391Z,45.19
2018-02-06T12:59:54.412Z,45.10
2018-02-06T13:00:54.443Z,44.91
2018-02-06T13:01:54.455Z,44.91
2018-02-06T13:02:54.480Z,45.67
2018-02-06T13:03:54.506Z,45.86
2018-02-06T13:04:54.534Z,46.71
2018-02-06T13:05:54.549Z,46.71
2018-02-06T13:06:54.572Z,47.18
2018-02-06T13:07:54.597Z,47.94
2018-02-06T13:08:54.618Z,48.20
2018-02-06T13:09:54.647Z,48.68
2018-02-06T13:10:54.655Z,48.10
2018-02-06T13:11:54.694Z,48.49
2018-02-06T13:12:54.702Z,48.86
2018-02-06T13:13:54.718Z,48.39
2018-02-06T13:14:54.749Z,48.49
2018-02-06T13:15:54.766Z,48.29
2018-02-06T13:16:54.788Z,49.33
2018-02-06T13:17:54.816Z,49.43
2018-02-06T13:18:54.843Z,49.24
2018-02-06T13:19:54.852Z,49.24
2018-02-06T13:20:54.873Z,48.77
2018-02-06T13:21:54.896Z,48.77
2018-02-06T13:22:54.936Z,49.15
2018-02-06T13:23:54.947Z,48.96
2018-02-06T13:24:54.967Z,48.68
2018-02-06T13:25:54.981Z,48.77
2018-02-06T13:26:54.997Z,49.15
2018-02-06T13:27:55.018Z,48.86
2018-02-06T13:28:55.042Z,49.22
2018-02-06T13:29:55.068Z,49.15
2018-02-06T13:30:55.080Z,49.43
2018-02-06T13:31:55.106Z,49.05
2018-02-06T13:32:55.125Z,48.10
2018-02-06T13:33:55.146Z,48.27
2018-02-06T13:34:55.172Z,48.08
2018-02-06T13:35:55.206Z,48.27
2018-02-06T13:36:55.209Z,47.89
2018-02-06T13:37:55.243Z,47.89
2018-02-06T13:38:55.254Z,48.27
2018-02-06T13:39:55.276Z,48.08
2018-02-06T13:40:55.286Z,47.80
2018-02-06T13:41:55.304Z,47.99
2018-02-06T13:42:55.338Z,47.99
2018-02-06T13:43:55.357Z,48.36
2018-02-06T13:44:55.384Z,47.99
2018-02-06T13:45:55.385Z,48.08
2018-02-06T13:46:55.417Z,48.93
2018-02-06T13:47:55.429Z,48.74
2018-02-06T13:48:55.453Z,48.84
2018-02-06T13:49:55.469Z,48.74
2018-02-06T13:50:55.503Z,48.93
2018-02-06T13:51:55.513Z,48.84
2018-02-06T13:52:55.535Z,48.46
2018-02-06T13:53:55.549Z,48.93
2018-02-06T13:54:55.574Z,48.93
2018-02-06T13:55:55.591Z,49.31
2018-02-06T13:56:55.614Z,48.74
2018-02-06T13:57:55.634Z,48.84
2018-02-06T13:58:55.655Z,48.84
2018-02-06T13:59:55.705Z,49.03
2018-02-06T14:00:55.692Z,48.74
2018-02-06T14:01:55.724Z,48.74
2018-02-06T14:02:55.739Z,49.12
2018-02-06T14:03:55.752Z,49.03
2018-02-06T14:04:55.777Z,48.84
2018-02-06T14:05:55.794Z,49.12
2018-02-06T14:06:55.819Z,49.12
2018-02-06T14:07:55.839Z,49.22
2018-02-06T14:08:55.852Z,48.93
2018-02-06T14:09:55.873Z,48.74
2018-02-06T14:10:55.893Z,49.03
2018-02-06T14:11:55.906Z,48.93
2018-02-06T14:12:55.933Z,48.84
2018-02-06T14:13:55.950Z,49.22
2018-02-06T14:14:55.964Z,49.31
2018-02-06T14:15:55.994Z,49.12
2018-02-06T14:16:56.014Z,49.50
2018-02-06T14:17:56.033Z,49.60
2018-02-06T14:18:56.046Z,50.16
2018-02-06T14:19:56.064Z,49.60
2018-02-06T14:20:56.089Z,50.23
2018-02-06T14:21:56.119Z,49.41
2018-02-06T14:22:56.135Z,49.60
2018-02-06T14:23:56.147Z,49.60
2018-02-06T14:24:56.192Z,49.38
2018-02-06T14:25:56.194Z,48.93
2018-02-06T14:26:56.206Z,49.50
2018-02-06T14:27:56.220Z,49.03
2018-02-06T14:28:56.250Z,49.12
2018-02-06T14:29:56.266Z,48.93
2018-02-06T14:30:56.282Z,49.12
2018-02-06T14:31:56.301Z,48.84
2018-02-06T14:32:56.318Z,49.03
2018-02-06T14:33:56.353Z,49.03
2018-02-06T14:34:56.356Z,48.74
2018-02-06T14:35:56.383Z,49.03
2018-02-06T14:36:56.400Z,49.10
2018-02-06T14:37:56.421Z,49.50
2018-02-06T14:38:56.438Z,50.07
2018-02-06T14:39:56.457Z,49.88
2018-02-06T14:40:56.474Z,49.48
2018-02-06T14:41:56.496Z,49.41
2018-02-06T14:42:56.514Z,49.79
2018-02-06T14:43:56.542Z,49.50
2018-02-06T14:44:56.572Z,49.76
2018-02-06T14:45:56.586Z,49.38
2018-02-06T14:46:56.600Z,49.19
2018-02-06T14:47:56.638Z,49.01
2018-02-06T14:48:56.632Z,49.01